EDT,Max TemperatureF,Mean TemperatureF,Min TemperatureF,Max Dew PointF,MeanDew PointF,Min DewpointF,Max Humidity, Mean Humidity, Min Humidity, Max Sea Level PressureIn, Mean Sea Level PressureIn, Min Sea Level PressureIn, Max VisibilityMiles, Mean VisibilityMiles, Min VisibilityMiles, Max Wind SpeedMPH, Mean Wind SpeedMPH, Max Gust SpeedMPH,PrecipitationIn, CloudCover, Events, WindDirDegrees
2013-7-1,86,80,73,73,71,68,100,82,62,30.02,29.98,29.92,7,6,2,18,12,29,0.00,6,Rain,187
2013-7-2,84,78,73,77,73,70,94,86,74,30.13,30.09,30.04,7,7,5,14,7,,0.00,6,Rain,172
2013-7-3,86,80,75,77,74,73,94,77,70,30.15,30.12,30.09,7,7,5,16,10,26,0.00,4,,151
2013-7-4,86,82,77,75,73,72,89,73,62,30.17,30.15,30.12,10,8,7,18,11,26,0.00,4,,137
2013-7-5,86,82,78,75,74,72,89,76,66,30.18,30.15,30.11,10,7,5,21,11,24,0.00,5,Rain,123
2013-7-6,87,82,78,75,73,72,79,71,62,30.16,30.12,30.09,7,7,7,16,11,22,0.00,3,,121
2013-7-7,87,84,80,75,73,72,84,68,58,30.16,30.12,30.08,7,7,7,14,12,,0.00,4,,114
2013-7-8,87,82,77,75,73,72,89,70,62,30.19,30.15,30.12,7,7,7,13,9,,0.00,4,,103
2013-7-9,87,79,71,73,71,68,100,69,58,30.19,30.15,30.10,7,7,7,16,8,,0.00,3,,67
2013-7-10,87,80,73,73,71,68,94,71,55,30.11,30.06,30.01,7,7,7,14,6,,0.00,3,,120
2013-7-11,87,80,73,75,71,66,94,75,52,30.04,29.99,29.94,7,7,2,29,9,,0.00,5,Thunderstorm,183
2013-7-12,87,79,71,75,72,68,100,75,52,29.97,29.94,29.91,10,8,7,17,5,23,0.00,4,,244
2013-7-13,84,80,75,73,72,70,89,76,66,29.99,29.98,29.96,7,7,7,14,7,,0.00,6,,161
2013-7-14,82,76,69,73,72,70,100,81,74,30.10,30.08,30.02,7,7,6,16,10,,0.00,5,,136
2013-7-15,84,76,69,75,73,68,94,78,66,30.13,30.09,30.06,7,7,7,16,8,,0.00,5,,55
2013-7-16,84,80,77,73,73,70,89,76,66,30.18,30.16,30.14,7,7,7,17,10,21,0.00,5,,97
2013-7-17,86,82,77,73,73,70,89,74,62,30.17,30.15,30.11,7,7,7,14,11,,0.00,4,,91
2013-7-18,82,78,75,75,72,68,89,76,62,30.15,30.12,30.09,7,7,7,14,9,,0.00,6,Rain,113
2013-7-19,84,78,71,77,73,70,94,79,66,30.16,30.12,30.07,10,7,7,16,8,,0.00,6,,148
2013-7-20,84,80,75,77,74,70,94,84,74,30.12,30.09,30.05,10,7,6,14,7,25,0.00,5,,171
2013-7-21,87,79,71,75,72,68,100,82,66,30.14,30.10,30.04,7,6,1,18,9,26,0.00,5,Rain-Thunderstorm,185
2013-7-22,89,81,73,75,73,70,94,78,52,30.14,30.11,30.08,7,6,2,18,10,29,0.00,5,Rain,225
2013-7-23,87,80,73,75,73,70,94,76,58,30.09,30.04,29.96,7,7,7,16,9,,0.00,5,,254
2013-7-24,86,80,75,75,73,72,94,82,66,30.00,29.95,29.90,7,5,1,26,11,45,0.00,5,Rain-Thunderstorm,251
2013-7-25,84,78,73,75,73,70,100,84,74,29.98,29.96,29.90,7,7,5,28,9,39,0.00,5,Rain,251
2013-7-26,87,81,75,75,75,73,100,79,62,30.02,30.00,29.97,7,6,2,12,5,,0.00,5,,39
2013-7-27,89,81,73,77,74,72,100,79,59,30.00,29.97,29.91,7,6,0,16,5,,0.00,4,Fog,247
2013-7-28,89,81,73,75,73,70,100,77,58,30.05,30.02,29.99,7,7,7,12,6,,0.00,3,,84
2013-7-29,89,80,71,77,74,70,100,77,59,30.14,30.12,30.09,7,7,7,12,7,23,0.00,3,,161
2013-7-30,89,80,71,75,74,70,100,74,58,30.19,30.16,30.12,7,7,7,14,5,,0.00,3,,109
2013-7-31,87,80,73,77,74,72,94,72,62,30.14,30.09,30.04,7,7,7,14,6,,0.00,4,,122